createdAt,value
2022-08-08T00:02:39.099Z,37.9
2022-08-08T00:42:39.047Z,38.3
2022-08-08T01:02:39.058Z,37.9
2022-08-08T01:22:38.995Z,44.9
2022-08-08T01:42:38.998Z,47.5
2022-08-08T02:02:38.980Z,48.8
2022-08-08T02:22:38.932Z,47.7
2022-08-08T02:42:38.914Z,48.9
2022-08-08T03:02:38.813Z,48.8
2022-08-08T03:22:38.864Z,49.6
2022-08-08T03:42:38.837Z,49.4
2022-08-08T04:02:38.841Z,49.1
2022-08-08T04:22:38.791Z,49.0
2022-08-08T04:42:38.708Z,50.1
2022-08-08T05:02:38.788Z,50.7
2022-08-08T05:22:38.727Z,53.8
2022-08-08T05:42:38.704Z,54.4
2022-08-08T06:02:38.627Z,51.2
2022-08-08T06:42:38.629Z,50.1
2022-08-08T07:02:38.598Z,48.8
2022-08-08T07:22:38.590Z,47.1
2022-08-08T07:42:38.495Z,49.1
2022-08-08T08:02:38.520Z,44.0
2022-08-08T08:22:38.489Z,43.6
2022-08-08T08:42:38.411Z,44.0
2022-08-08T09:02:38.457Z,40.1
2022-08-08T09:22:38.446Z,39.3
2022-08-08T09:42:38.393Z,38.5
2022-08-08T10:02:38.318Z,38.6
2022-08-08T10:22:38.367Z,36.8
2022-08-08T10:42:38.320Z,34.2
2022-08-08T11:02:38.293Z,35.7
2022-08-08T11:22:38.194Z,32.0
2022-08-08T11:42:38.233Z,31.5
2022-08-08T12:02:38.191Z,30.3
2022-08-08T13:02:38.049Z,29.4
2022-08-08T13:22:38.106Z,27.2
2022-08-08T13:42:38.037Z,28.2
2022-08-08T14:02:38.052Z,27.2
2022-08-08T14:42:37.925Z,26.3
2022-08-08T15:02:37.905Z,27.4
2022-08-08T15:22:37.902Z,25.4
2022-08-08T15:42:37.924Z,25.4
2022-08-08T16:42:37.788Z,25.8
2022-08-08T17:02:37.836Z,26.6
2022-08-08T17:22:37.821Z,27.3
2022-08-08T17:42:37.709Z,27.8
2022-08-08T18:02:37.769Z,27.8
2022-08-08T18:22:37.746Z,28.6
2022-08-08T18:42:37.684Z,29.6
2022-08-08T19:02:37.682Z,31.4
2022-08-08T19:22:37.699Z,32.3
2022-08-08T19:42:37.633Z,35.0
2022-08-08T20:02:37.603Z,35.5
2022-08-08T20:22:37.578Z,35.4
2022-08-08T21:02:37.532Z,38.2
2022-08-08T21:22:37.514Z,38.8
2022-08-08T22:02:37.482Z,40.8
2022-08-08T22:22:37.342Z,38.2
2022-08-08T22:42:37.405Z,36.0
2022-08-08T23:42:37.350Z,39.9
